sensor_id;sensor_type;location;lat;lon;timestamp;P1;durP1;ratioP1;P2;durP2;ratioP2
76727;SDS011;65652;53.132;18.026;2023-02-01T00:02:20;7.30;;;1.70;;
76727;SDS011;65652;53.132;18.026;2023-02-01T00:04:46;8.20;;;1.50;;
76727;SDS011;65652;53.132;18.026;2023-02-01T00:07:12;11.70;;;1.90;;
76727;SDS011;65652;53.132;18.026;2023-02-01T00:09:38;7.10;;;1.30;;
76727;SDS011;65652;53.132;18.026;2023-02-01T00:12:04;7.40;;;1.50;;
76727;SDS011;65652;53.132;18.026;2023-02-01T00:14:30;11.30;;;2.00;;
76727;SDS011;65652;53.132;18.026;2023-02-01T00:17:04;6.80;;;1.10;;
76727;SDS011;65652;53.132;18.026;2023-02-01T00:19:32;11.90;;;2.30;;
76727;SDS011;65652;53.132;18.026;2023-02-01T00:21:59;8.10;;;1.70;;
76727;SDS011;65652;53.132;18.026;2023-02-01T00:24:26;11.50;;;1.80;;
76727;SDS011;65652;53.132;18.026;2023-02-01T00:26:52;7.50;;;1.20;;
76727;SDS011;65652;53.132;18.026;2023-02-01T00:29:19;8.80;;;2.00;;
76727;SDS011;65652;53.132;18.026;2023-02-01T00:31:45;11.30;;;1.90;;
76727;SDS011;65652;53.132;18.026;2023-02-01T00:34:13;10.60;;;1.60;;
76727;SDS011;65652;53.132;18.026;2023-02-01T00:36:42;9.70;;;1.40;;
76727;SDS011;65652;53.132;18.026;2023-02-01T00:39:09;8.30;;;1.50;;
76727;SDS011;65652;53.132;18.026;2023-02-01T00:41:36;11.20;;;1.70;;
76727;SDS011;65652;53.132;18.026;2023-02-01T00:44:02;6.90;;;1.60;;
76727;SDS011;65652;53.132;18.026;2023-02-01T00:46:29;8.90;;;1.60;;
76727;SDS011;65652;53.132;18.026;2023-02-01T00:48:55;8.50;;;0.90;;
76727;SDS011;65652;53.132;18.026;2023-02-01T00:51:23;8.70;;;1.80;;
76727;SDS011;65652;53.132;18.026;2023-02-01T00:53:52;8.00;;;1.40;;
76727;SDS011;65652;53.132;18.026;2023-02-01T00:56:19;7.10;;;1.30;;
76727;SDS011;65652;53.132;18.026;2023-02-01T00:58:45;14.80;;;2.10;;
76727;SDS011;65652;53.132;18.026;2023-02-01T01:01:14;11.20;;;1.60;;
76727;SDS011;65652;53.132;18.026;2023-02-01T01:03:44;9.10;;;2.10;;
76727;SDS011;65652;53.132;18.026;2023-02-01T01:06:13;6.00;;;1.40;;
76727;SDS011;65652;53.132;18.026;2023-02-01T01:08:41;7.30;;;1.50;;
76727;SDS011;65652;53.132;18.026;2023-02-01T01:11:12;5.60;;;1.30;;
76727;SDS011;65652;53.132;18.026;2023-02-01T01:13:45;9.50;;;1.60;;
76727;SDS011;65652;53.132;18.026;2023-02-01T01:16:13;8.60;;;1.50;;
76727;SDS011;65652;53.132;18.026;2023-02-01T01:18:40;12.20;;;1.50;;
76727;SDS011;65652;53.132;18.026;2023-02-01T01:21:08;7.70;;;0.80;;
76727;SDS011;65652;53.132;18.026;2023-02-01T01:23:36;7.00;;;1.60;;
76727;SDS011;65652;53.132;18.026;2023-02-01T01:26:07;11.00;;;1.40;;
76727;SDS011;65652;53.132;18.026;2023-02-01T01:28:34;8.20;;;1.50;;
76727;SDS011;65652;53.132;18.026;2023-02-01T01:31:01;7.30;;;2.00;;
76727;SDS011;65652;53.132;18.026;2023-02-01T01:33:27;9.90;;;1.60;;
76727;SDS011;65652;53.132;18.026;2023-02-01T01:35:53;6.30;;;1.60;;
76727;SDS011;65652;53.132;18.026;2023-02-01T01:38:20;9.60;;;1.90;;
76727;SDS011;65652;53.132;18.026;2023-02-01T01:40:46;12.00;;;1.40;;
76727;SDS011;65652;53.132;18.026;2023-02-01T01:43:16;6.80;;;2.10;;
76727;SDS011;65652;53.132;18.026;2023-02-01T01:45:45;6.30;;;1.40;;
76727;SDS011;65652;53.132;18.026;2023-02-01T01:48:25;8.20;;;1.70;;
76727;SDS011;65652;53.132;18.026;2023-02-01T01:51:05;15.50;;;2.00;;
76727;SDS011;65652;53.132;18.026;2023-02-01T01:53:38;10.50;;;2.40;;
76727;SDS011;65652;53.132;18.026;2023-02-01T01:56:10;9.00;;;1.30;;
76727;SDS011;65652;53.132;18.026;2023-02-01T01:58:38;9.10;;;1.60;;
76727;SDS011;65652;53.132;18.026;2023-02-01T02:01:04;9.60;;;1.90;;
76727;SDS011;65652;53.132;18.026;2023-02-01T02:03:43;8.80;;;2.00;;
76727;SDS011;65652;53.132;18.026;2023-02-01T02:06:14;6.80;;;1.60;;
76727;SDS011;65652;53.132;18.026;2023-02-01T02:11:12;9.90;;;1.60;;
76727;SDS011;65652;53.132;18.026;2023-02-01T02:13:42;6.00;;;0.90;;
76727;SDS011;65652;53.132;18.026;2023-02-01T02:16:18;8.50;;;1.80;;
76727;SDS011;65652;53.132;18.026;2023-02-01T02:38:32;13.20;;;2.60;;
76727;SDS011;65652;53.132;18.026;2023-02-01T02:41:18;7.80;;;1.70;;
76727;SDS011;65652;53.132;18.026;2023-02-01T02:44:34;13.30;;;2.10;;
76727;SDS011;65652;53.132;18.026;2023-02-01T02:53:23;11.50;;;1.80;;
76727;SDS011;65652;53.132;18.026;2023-02-01T02:56:14;13.20;;;1.60;;
76727;SDS011;65652;53.132;18.026;2023-02-01T02:59:00;8.60;;;1.30;;
76727;SDS011;65652;53.132;18.026;2023-02-01T03:01:47;6.40;;;1.50;;
76727;SDS011;65652;53.132;18.026;2023-02-01T03:09:58;5.40;;;0.90;;
76727;SDS011;65652;53.132;18.026;2023-02-01T03:12:30;6.10;;;1.40;;
76727;SDS011;65652;53.132;18.026;2023-02-01T03:15:38;8.20;;;1.50;;
76727;SDS011;65652;53.132;18.026;2023-02-01T03:18:13;9.00;;;1.30;;
76727;SDS011;65652;53.132;18.026;2023-02-01T03:20:44;6.70;;;1.10;;
76727;SDS011;65652;53.132;18.026;2023-02-01T03:23:15;6.60;;;1.20;;
76727;SDS011;65652;53.132;18.026;2023-02-01T03:25:45;7.40;;;1.50;;
76727;SDS011;65652;53.132;18.026;2023-02-01T03:28:15;9.00;;;1.30;;
76727;SDS011;65652;53.132;18.026;2023-02-01T03:30:46;7.70;;;1.70;;
76727;SDS011;65652;53.132;18.026;2023-02-01T03:33:18;6.40;;;1.60;;
76727;SDS011;65652;53.132;18.026;2023-02-01T03:43:53;7.60;;;1.30;;
76727;SDS011;65652;53.132;18.026;2023-02-01T03:46:33;9.40;;;1.70;;
76727;SDS011;65652;53.132;18.026;2023-02-01T03:49:05;9.90;;;1.70;;
76727;SDS011;65652;53.132;18.026;2023-02-01T03:51:36;6.20;;;1.10;;
76727;SDS011;65652;53.132;18.026;2023-02-01T03:54:06;6.30;;;1.30;;
76727;SDS011;65652;53.132;18.026;2023-02-01T03:56:38;7.30;;;1.20;;
76727;SDS011;65652;53.132;18.026;2023-02-01T03:59:10;9.50;;;1.70;;
76727;SDS011;65652;53.132;18.026;2023-02-01T04:01:38;7.20;;;2.00;;
76727;SDS011;65652;53.132;18.026;2023-02-01T04:04:04;6.50;;;1.20;;
76727;SDS011;65652;53.132;18.026;2023-02-01T04:06:31;8.10;;;1.40;;
76727;SDS011;65652;53.132;18.026;2023-02-01T04:09:00;5.40;;;0.80;;
76727;SDS011;65652;53.132;18.026;2023-02-01T04:11:27;5.60;;;1.10;;
76727;SDS011;65652;53.132;18.026;2023-02-01T04:13:54;7.00;;;1.30;;
76727;SDS011;65652;53.132;18.026;2023-02-01T04:16:20;9.20;;;1.40;;
76727;SDS011;65652;53.132;18.026;2023-02-01T04:18:47;8.80;;;1.70;;
76727;SDS011;65652;53.132;18.026;2023-02-01T04:21:13;9.80;;;1.70;;
76727;SDS011;65652;53.132;18.026;2023-02-01T04:23:39;6.60;;;1.20;;
76727;SDS011;65652;53.132;18.026;2023-02-01T04:26:05;5.70;;;1.50;;
76727;SDS011;65652;53.132;18.026;2023-02-01T04:28:31;12.90;;;2.00;;
76727;SDS011;65652;53.132;18.026;2023-02-01T04:30:57;7.10;;;1.10;;
76727;SDS011;65652;53.132;18.026;2023-02-01T04:33:24;6.20;;;1.40;;
76727;SDS011;65652;53.132;18.026;2023-02-01T04:35:50;9.50;;;2.10;;
76727;SDS011;65652;53.132;18.026;2023-02-01T04:38:16;11.70;;;2.10;;
76727;SDS011;65652;53.132;18.026;2023-02-01T04:40:46;7.10;;;1.80;;
76727;SDS011;65652;53.132;18.026;2023-02-01T04:43:13;9.40;;;1.40;;
76727;SDS011;65652;53.132;18.026;2023-02-01T04:45:39;8.40;;;1.40;;
76727;SDS011;65652;53.132;18.026;2023-02-01T04:48:05;9.30;;;1.60;;
76727;SDS011;65652;53.132;18.026;2023-02-01T04:50:31;8.30;;;1.90;;
76727;SDS011;65652;53.132;18.026;2023-02-01T04:52:57;9.20;;;1.80;;
76727;SDS011;65652;53.132;18.026;2023-02-01T04:55:24;7.50;;;1.30;;
76727;SDS011;65652;53.132;18.026;2023-02-01T04:57:50;9.30;;;1.50;;
76727;SDS011;65652;53.132;18.026;2023-02-01T05:00:16;7.20;;;1.20;;
76727;SDS011;65652;53.132;18.026;2023-02-01T05:02:43;12.20;;;1.70;;
76727;SDS011;65652;53.132;18.026;2023-02-01T05:05:09;9.20;;;1.60;;
76727;SDS011;65652;53.132;18.026;2023-02-01T05:07:35;8.20;;;1.50;;
76727;SDS011;65652;53.132;18.026;2023-02-01T05:10:01;10.50;;;1.30;;
76727;SDS011;65652;53.132;18.026;2023-02-01T05:12:27;7.30;;;1.60;;
76727;SDS011;65652;53.132;18.026;2023-02-01T05:15:12;13.80;;;2.20;;
76727;SDS011;65652;53.132;18.026;2023-02-01T05:17:38;8.00;;;1.80;;
76727;SDS011;65652;53.132;18.026;2023-02-01T05:20:06;6.70;;;1.40;;
76727;SDS011;65652;53.132;18.026;2023-02-01T05:22:33;11.60;;;2.00;;
76727;SDS011;65652;53.132;18.026;2023-02-01T05:24:59;6.40;;;1.00;;
76727;SDS011;65652;53.132;18.026;2023-02-01T05:27:26;12.20;;;1.50;;
76727;SDS011;65652;53.132;18.026;2023-02-01T05:29:55;6.50;;;1.50;;
76727;SDS011;65652;53.132;18.026;2023-02-01T05:32:21;9.10;;;2.20;;
76727;SDS011;65652;53.132;18.026;2023-02-01T05:34:48;9.60;;;1.80;;
76727;SDS011;65652;53.132;18.026;2023-02-01T05:37:14;5.00;;;1.10;;
76727;SDS011;65652;53.132;18.026;2023-02-01T05:39:40;7.90;;;1.50;;
76727;SDS011;65652;53.132;18.026;2023-02-01T05:42:06;11.60;;;2.30;;
76727;SDS011;65652;53.132;18.026;2023-02-01T05:44:32;8.10;;;1.70;;
76727;SDS011;65652;53.132;18.026;2023-02-01T05:46:59;5.80;;;1.50;;
76727;SDS011;65652;53.132;18.026;2023-02-01T05:49:25;10.30;;;2.60;;
76727;SDS011;65652;53.132;18.026;2023-02-01T05:51:51;9.20;;;1.50;;
76727;SDS011;65652;53.132;18.026;2023-02-01T05:54:17;11.90;;;3.20;;
76727;SDS011;65652;53.132;18.026;2023-02-01T05:56:43;10.00;;;2.50;;
76727;SDS011;65652;53.132;18.026;2023-02-01T05:59:09;12.00;;;2.20;;
76727;SDS011;65652;53.132;18.026;2023-02-01T06:01:36;6.40;;;1.70;;
76727;SDS011;65652;53.132;18.026;2023-02-01T06:04:02;9.50;;;2.00;;
76727;SDS011;65652;53.132;18.026;2023-02-01T06:06:29;10.30;;;2.00;;
76727;SDS011;65652;53.132;18.026;2023-02-01T06:08:55;10.80;;;2.30;;
76727;SDS011;65652;53.132;18.026;2023-02-01T06:11:21;6.80;;;2.20;;
76727;SDS011;65652;53.132;18.026;2023-02-01T06:13:47;12.20;;;2.50;;
76727;SDS011;65652;53.132;18.026;2023-02-01T06:16:13;7.70;;;1.30;;
76727;SDS011;65652;53.132;18.026;2023-02-01T06:18:41;8.50;;;1.50;;
76727;SDS011;65652;53.132;18.026;2023-02-01T06:21:08;10.60;;;2.50;;
76727;SDS011;65652;53.132;18.026;2023-02-01T06:23:34;6.60;;;1.20;;
76727;SDS011;65652;53.132;18.026;2023-02-01T06:26:02;11.60;;;2.50;;
76727;SDS011;65652;53.132;18.026;2023-02-01T06:28:30;8.40;;;1.70;;
76727;SDS011;65652;53.132;18.026;2023-02-01T06:30:58;12.80;;;2.50;;
76727;SDS011;65652;53.132;18.026;2023-02-01T06:33:28;12.00;;;1.90;;
76727;SDS011;65652;53.132;18.026;2023-02-01T06:35:57;15.30;;;2.00;;
76727;SDS011;65652;53.132;18.026;2023-02-01T06:38:24;12.10;;;2.70;;
76727;SDS011;65652;53.132;18.026;2023-02-01T06:40:55;6.80;;;1.80;;
76727;SDS011;65652;53.132;18.026;2023-02-01T06:43:23;11.30;;;2.40;;
76727;SDS011;65652;53.132;18.026;2023-02-01T06:45:50;7.60;;;2.20;;
76727;SDS011;65652;53.132;18.026;2023-02-01T06:48:17;17.90;;;2.40;;
76727;SDS011;65652;53.132;18.026;2023-02-01T06:50:44;8.70;;;1.50;;
76727;SDS011;65652;53.132;18.026;2023-02-01T06:53:11;6.60;;;1.70;;
76727;SDS011;65652;53.132;18.026;2023-02-01T06:55:37;11.30;;;1.50;;
76727;SDS011;65652;53.132;18.026;2023-02-01T06:58:03;10.70;;;2.30;;
76727;SDS011;65652;53.132;18.026;2023-02-01T07:00:29;7.10;;;1.90;;
76727;SDS011;65652;53.132;18.026;2023-02-01T07:02:56;9.00;;;1.80;;
76727;SDS011;65652;53.132;18.026;2023-02-01T07:05:24;5.40;;;1.20;;
76727;SDS011;65652;53.132;18.026;2023-02-01T07:07:50;8.20;;;1.90;;
76727;SDS011;65652;53.132;18.026;2023-02-01T07:10:17;12.70;;;2.70;;
76727;SDS011;65652;53.132;18.026;2023-02-01T07:12:43;8.60;;;1.50;;
76727;SDS011;65652;53.132;18.026;2023-02-01T07:15:09;10.40;;;1.70;;
76727;SDS011;65652;53.132;18.026;2023-02-01T07:17:35;8.00;;;2.30;;
76727;SDS011;65652;53.132;18.026;2023-02-01T07:20:02;10.70;;;2.00;;
76727;SDS011;65652;53.132;18.026;2023-02-01T07:22:28;11.70;;;0.90;;
76727;SDS011;65652;53.132;18.026;2023-02-01T07:24:55;7.60;;;1.90;;
76727;SDS011;65652;53.132;18.026;2023-02-01T07:27:21;6.10;;;2.20;;
76727;SDS011;65652;53.132;18.026;2023-02-01T07:29:50;8.10;;;1.70;;
76727;SDS011;65652;53.132;18.026;2023-02-01T07:32:17;8.20;;;1.70;;
76727;SDS011;65652;53.132;18.026;2023-02-01T07:34:44;6.30;;;2.40;;
76727;SDS011;65652;53.132;18.026;2023-02-01T07:37:10;10.10;;;2.20;;
76727;SDS011;65652;53.132;18.026;2023-02-01T07:39:37;9.10;;;2.20;;
76727;SDS011;65652;53.132;18.026;2023-02-01T07:42:03;12.50;;;2.20;;
76727;SDS011;65652;53.132;18.026;2023-02-01T07:44:29;7.00;;;1.30;;
76727;SDS011;65652;53.132;18.026;2023-02-01T07:46:55;7.30;;;1.80;;
76727;SDS011;65652;53.132;18.026;2023-02-01T07:49:21;13.00;;;1.90;;
76727;SDS011;65652;53.132;18.026;2023-02-01T07:51:47;12.50;;;2.30;;
76727;SDS011;65652;53.132;18.026;2023-02-01T07:54:13;10.00;;;2.20;;
76727;SDS011;65652;53.132;18.026;2023-02-01T07:56:40;9.50;;;2.00;;
76727;SDS011;65652;53.132;18.026;2023-02-01T07:59:06;6.60;;;1.40;;
76727;SDS011;65652;53.132;18.026;2023-02-01T08:01:33;10.40;;;1.60;;
76727;SDS011;65652;53.132;18.026;2023-02-01T08:04:00;6.60;;;1.20;;
76727;SDS011;65652;53.132;18.026;2023-02-01T08:06:29;7.00;;;1.70;;
76727;SDS011;65652;53.132;18.026;2023-02-01T08:08:57;11.20;;;1.70;;
76727;SDS011;65652;53.132;18.026;2023-02-01T08:11:24;8.10;;;1.60;;
76727;SDS011;65652;53.132;18.026;2023-02-01T08:13:51;10.30;;;1.80;;
76727;SDS011;65652;53.132;18.026;2023-02-01T08:16:18;7.20;;;1.80;;
76727;SDS011;65652;53.132;18.026;2023-02-01T08:18:45;7.50;;;2.00;;
76727;SDS011;65652;53.132;18.026;2023-02-01T08:21:13;12.00;;;2.10;;
76727;SDS011;65652;53.132;18.026;2023-02-01T08:23:41;8.00;;;1.50;;
76727;SDS011;65652;53.132;18.026;2023-02-01T08:26:13;9.70;;;1.40;;
76727;SDS011;65652;53.132;18.026;2023-02-01T08:28:41;7.60;;;1.80;;
76727;SDS011;65652;53.132;18.026;2023-02-01T08:31:11;6.20;;;1.80;;
76727;SDS011;65652;53.132;18.026;2023-02-01T08:33:40;6.90;;;1.70;;
76727;SDS011;65652;53.132;18.026;2023-02-01T08:36:07;14.20;;;2.90;;
76727;SDS011;65652;53.132;18.026;2023-02-01T08:38:36;9.40;;;2.20;;
76727;SDS011;65652;53.132;18.026;2023-02-01T08:41:04;4.60;;;0.90;;
76727;SDS011;65652;53.132;18.026;2023-02-01T08:43:36;10.80;;;2.10;;
76727;SDS011;65652;53.132;18.026;2023-02-01T08:46:03;9.30;;;2.50;;
76727;SDS011;65652;53.132;18.026;2023-02-01T08:48:30;11.80;;;2.60;;
76727;SDS011;65652;53.132;18.026;2023-02-01T08:50:56;9.00;;;2.00;;
76727;SDS011;65652;53.132;18.026;2023-02-01T08:53:23;8.30;;;1.80;;
76727;SDS011;65652;53.132;18.026;2023-02-01T08:55:49;11.40;;;3.30;;
76727;SDS011;65652;53.132;18.026;2023-02-01T08:58:15;9.50;;;2.40;;
76727;SDS011;65652;53.132;18.026;2023-02-01T09:00:43;7.90;;;2.40;;
76727;SDS011;65652;53.132;18.026;2023-02-01T09:03:13;11.00;;;2.40;;
76727;SDS011;65652;53.132;18.026;2023-02-01T09:05:40;7.60;;;1.90;;
76727;SDS011;65652;53.132;18.026;2023-02-01T09:08:07;6.40;;;1.90;;
76727;SDS011;65652;53.132;18.026;2023-02-01T09:10:34;8.70;;;2.40;;
76727;SDS011;65652;53.132;18.026;2023-02-01T09:13:01;7.80;;;1.60;;
76727;SDS011;65652;53.132;18.026;2023-02-01T09:15:27;8.80;;;1.90;;
76727;SDS011;65652;53.132;18.026;2023-02-01T09:17:53;6.10;;;1.60;;
76727;SDS011;65652;53.132;18.026;2023-02-01T09:20:19;8.80;;;2.10;;
76727;SDS011;65652;53.132;18.026;2023-02-01T09:22:50;9.40;;;2.40;;
76727;SDS011;65652;53.132;18.026;2023-02-01T09:25:17;8.00;;;1.70;;
76727;SDS011;65652;53.132;18.026;2023-02-01T09:27:43;8.90;;;2.10;;
76727;SDS011;65652;53.132;18.026;2023-02-01T09:30:10;11.60;;;2.10;;
76727;SDS011;65652;53.132;18.026;2023-02-01T09:32:36;5.60;;;2.00;;
76727;SDS011;65652;53.132;18.026;2023-02-01T09:35:03;10.70;;;2.10;;
76727;SDS011;65652;53.132;18.026;2023-02-01T09:37:29;9.60;;;2.00;;
76727;SDS011;65652;53.132;18.026;2023-02-01T09:39:55;9.60;;;2.30;;
76727;SDS011;65652;53.132;18.026;2023-02-01T09:47:58;7.30;;;1.40;;
76727;SDS011;65652;53.132;18.026;2023-02-01T09:50:38;7.80;;;1.80;;
76727;SDS011;65652;53.132;18.026;2023-02-01T09:58:47;8.30;;;2.00;;
76727;SDS011;65652;53.132;18.026;2023-02-01T10:01:25;13.00;;;2.90;;
76727;SDS011;65652;53.132;18.026;2023-02-01T10:03:55;13.00;;;2.60;;
76727;SDS011;65652;53.132;18.026;2023-02-01T10:06:42;10.00;;;2.50;;
76727;SDS011;65652;53.132;18.026;2023-02-01T10:26:55;4.80;;;1.50;;
76727;SDS011;65652;53.132;18.026;2023-02-01T10:29:30;11.40;;;2.40;;
76727;SDS011;65652;53.132;18.026;2023-02-01T10:32:03;11.10;;;3.00;;
76727;SDS011;65652;53.132;18.026;2023-02-01T10:34:38;9.20;;;2.20;;
76727;SDS011;65652;53.132;18.026;2023-02-01T10:37:11;12.40;;;2.10;;
76727;SDS011;65652;53.132;18.026;2023-02-01T10:39:52;8.90;;;1.80;;
76727;SDS011;65652;53.132;18.026;2023-02-01T10:42:21;6.10;;;1.80;;
76727;SDS011;65652;53.132;18.026;2023-02-01T10:44:51;17.40;;;3.40;;
76727;SDS011;65652;53.132;18.026;2023-02-01T10:47:19;10.80;;;2.40;;
76727;SDS011;65652;53.132;18.026;2023-02-01T10:49:58;10.80;;;2.30;;
76727;SDS011;65652;53.132;18.026;2023-02-01T10:52:45;15.20;;;3.40;;
76727;SDS011;65652;53.132;18.026;2023-02-01T10:55:26;8.20;;;2.50;;
76727;SDS011;65652;53.132;18.026;2023-02-01T10:57:59;13.80;;;3.00;;
76727;SDS011;65652;53.132;18.026;2023-02-01T11:00:28;9.80;;;3.00;;
76727;SDS011;65652;53.132;18.026;2023-02-01T11:03:01;9.30;;;2.20;;
76727;SDS011;65652;53.132;18.026;2023-02-01T11:05:45;14.60;;;2.90;;
76727;SDS011;65652;53.132;18.026;2023-02-01T11:08:14;13.50;;;3.10;;
76727;SDS011;65652;53.132;18.026;2023-02-01T11:10:44;13.40;;;1.70;;
76727;SDS011;65652;53.132;18.026;2023-02-01T11:13:15;11.60;;;3.10;;
76727;SDS011;65652;53.132;18.026;2023-02-01T11:15:46;9.80;;;2.60;;
76727;SDS011;65652;53.132;18.026;2023-02-01T11:18:24;12.30;;;3.10;;
76727;SDS011;65652;53.132;18.026;2023-02-01T11:20:53;14.50;;;3.40;;
76727;SDS011;65652;53.132;18.026;2023-02-01T11:23:22;9.40;;;2.20;;
76727;SDS011;65652;53.132;18.026;2023-02-01T11:25:55;14.10;;;2.90;;
76727;SDS011;65652;53.132;18.026;2023-02-01T11:28:27;14.80;;;3.40;;
76727;SDS011;65652;53.132;18.026;2023-02-01T11:30:57;13.00;;;2.70;;
76727;SDS011;65652;53.132;18.026;2023-02-01T11:33:31;13.90;;;3.10;;
76727;SDS011;65652;53.132;18.026;2023-02-01T11:36:01;12.40;;;2.50;;
76727;SDS011;65652;53.132;18.026;2023-02-01T11:38:33;14.10;;;2.80;;
76727;SDS011;65652;53.132;18.026;2023-02-01T11:43:50;10.30;;;2.30;;
76727;SDS011;65652;53.132;18.026;2023-02-01T11:46:34;11.10;;;2.80;;
76727;SDS011;65652;53.132;18.026;2023-02-01T11:49:13;16.40;;;5.20;;
76727;SDS011;65652;53.132;18.026;2023-02-01T11:51:55;10.90;;;2.50;;
76727;SDS011;65652;53.132;18.026;2023-02-01T12:00:45;10.60;;;2.20;;
76727;SDS011;65652;53.132;18.026;2023-02-01T12:06:14;10.00;;;1.70;;
76727;SDS011;65652;53.132;18.026;2023-02-01T12:11:31;6.80;;;1.80;;
76727;SDS011;65652;53.132;18.026;2023-02-01T12:19:20;9.60;;;2.40;;
76727;SDS011;65652;53.132;18.026;2023-02-01T12:35:38;8.10;;;2.00;;
76727;SDS011;65652;53.132;18.026;2023-02-01T12:41:06;5.00;;;1.60;;
76727;SDS011;65652;53.132;18.026;2023-02-01T12:43:56;4.90;;;1.10;;
76727;SDS011;65652;53.132;18.026;2023-02-01T12:46:25;9.90;;;2.50;;
76727;SDS011;65652;53.132;18.026;2023-02-01T12:51:46;4.60;;;1.20;;
76727;SDS011;65652;53.132;18.026;2023-02-01T12:54:19;9.90;;;2.10;;
76727;SDS011;65652;53.132;18.026;2023-02-01T12:57:13;9.00;;;3.10;;
76727;SDS011;65652;53.132;18.026;2023-02-01T12:59:55;10.10;;;2.80;;
76727;SDS011;65652;53.132;18.026;2023-02-01T13:05:13;7.70;;;1.90;;
76727;SDS011;65652;53.132;18.026;2023-02-01T13:07:47;7.70;;;1.90;;
76727;SDS011;65652;53.132;18.026;2023-02-01T13:10:30;8.70;;;2.20;;
76727;SDS011;65652;53.132;18.026;2023-02-01T13:13:07;4.20;;;1.20;;
76727;SDS011;65652;53.132;18.026;2023-02-01T13:15:38;6.90;;;2.20;;
76727;SDS011;65652;53.132;18.026;2023-02-01T13:18:09;7.60;;;2.00;;
76727;SDS011;65652;53.132;18.026;2023-02-01T13:20:51;8.20;;;2.00;;
76727;SDS011;65652;53.132;18.026;2023-02-01T13:23:31;8.10;;;2.10;;
76727;SDS011;65652;53.132;18.026;2023-02-01T13:26:01;8.60;;;2.30;;
76727;SDS011;65652;53.132;18.026;2023-02-01T13:28:28;7.50;;;2.30;;
76727;SDS011;65652;53.132;18.026;2023-02-01T13:42:12;6.50;;;2.40;;
76727;SDS011;65652;53.132;18.026;2023-02-01T13:44:44;7.30;;;2.60;;
76727;SDS011;65652;53.132;18.026;2023-02-01T13:49:58;6.10;;;2.10;;
76727;SDS011;65652;53.132;18.026;2023-02-01T13:52:39;7.30;;;2.30;;
76727;SDS011;65652;53.132;18.026;2023-02-01T13:57:47;6.20;;;2.20;;
76727;SDS011;65652;53.132;18.026;2023-02-01T14:13:28;11.90;;;2.50;;
76727;SDS011;65652;53.132;18.026;2023-02-01T14:23:45;8.00;;;1.80;;
76727;SDS011;65652;53.132;18.026;2023-02-01T14:26:17;6.00;;;1.70;;
76727;SDS011;65652;53.132;18.026;2023-02-01T14:31:40;9.00;;;2.50;;
76727;SDS011;65652;53.132;18.026;2023-02-01T14:34:21;16.20;;;4.30;;
76727;SDS011;65652;53.132;18.026;2023-02-01T14:36:57;10.10;;;3.20;;
76727;SDS011;65652;53.132;18.026;2023-02-01T14:39:31;22.40;;;7.40;;
76727;SDS011;65652;53.132;18.026;2023-02-01T14:42:03;17.60;;;5.30;;
76727;SDS011;65652;53.132;18.026;2023-02-01T14:44:40;20.70;;;7.50;;
76727;SDS011;65652;53.132;18.026;2023-02-01T14:47:49;19.20;;;5.80;;
76727;SDS011;65652;53.132;18.026;2023-02-01T14:52:36;18.60;;;6.10;;
76727;SDS011;65652;53.132;18.026;2023-02-01T14:55:11;22.80;;;5.60;;
76727;SDS011;65652;53.132;18.026;2023-02-01T14:57:41;16.00;;;5.30;;
76727;SDS011;65652;53.132;18.026;2023-02-01T15:02:46;19.60;;;6.50;;
76727;SDS011;65652;53.132;18.026;2023-02-01T15:07:50;11.80;;;4.30;;
76727;SDS011;65652;53.132;18.026;2023-02-01T15:10:18;13.10;;;3.70;;
76727;SDS011;65652;53.132;18.026;2023-02-01T15:12:46;10.30;;;3.50;;
76727;SDS011;65652;53.132;18.026;2023-02-01T15:15:19;11.70;;;4.10;;
76727;SDS011;65652;53.132;18.026;2023-02-01T15:17:52;10.20;;;3.60;;
76727;SDS011;65652;53.132;18.026;2023-02-01T15:20:24;16.40;;;5.00;;
76727;SDS011;65652;53.132;18.026;2023-02-01T15:22:59;10.80;;;3.90;;
76727;SDS011;65652;53.132;18.026;2023-02-01T15:25:28;8.20;;;2.80;;
76727;SDS011;65652;53.132;18.026;2023-02-01T15:27:56;11.30;;;3.30;;
76727;SDS011;65652;53.132;18.026;2023-02-01T15:30:24;8.40;;;2.90;;
76727;SDS011;65652;53.132;18.026;2023-02-01T15:32:52;7.10;;;2.50;;
76727;SDS011;65652;53.132;18.026;2023-02-01T15:35:43;8.30;;;2.90;;
76727;SDS011;65652;53.132;18.026;2023-02-01T15:38:24;7.20;;;2.20;;
76727;SDS011;65652;53.132;18.026;2023-02-01T15:46:21;7.50;;;2.40;;
76727;SDS011;65652;53.132;18.026;2023-02-01T15:48:56;9.20;;;3.50;;
76727;SDS011;65652;53.132;18.026;2023-02-01T15:51:24;5.90;;;2.00;;
76727;SDS011;65652;53.132;18.026;2023-02-01T15:54:04;11.20;;;4.00;;
76727;SDS011;65652;53.132;18.026;2023-02-01T15:56:34;12.60;;;3.90;;
76727;SDS011;65652;53.132;18.026;2023-02-01T15:59:05;9.60;;;2.70;;
76727;SDS011;65652;53.132;18.026;2023-02-01T16:01:38;15.10;;;4.60;;
76727;SDS011;65652;53.132;18.026;2023-02-01T16:06:55;9.90;;;3.20;;
76727;SDS011;65652;53.132;18.026;2023-02-01T16:12:26;8.40;;;3.70;;
76727;SDS011;65652;53.132;18.026;2023-02-01T16:14:56;16.20;;;5.00;;
76727;SDS011;65652;53.132;18.026;2023-02-01T16:17:25;7.60;;;2.80;;
76727;SDS011;65652;53.132;18.026;2023-02-01T16:19:51;11.40;;;3.80;;
76727;SDS011;65652;53.132;18.026;2023-02-01T16:22:17;12.90;;;4.10;;
76727;SDS011;65652;53.132;18.026;2023-02-01T16:24:44;8.40;;;2.50;;
76727;SDS011;65652;53.132;18.026;2023-02-01T16:27:10;12.60;;;3.40;;
76727;SDS011;65652;53.132;18.026;2023-02-01T16:29:36;8.30;;;2.90;;
76727;SDS011;65652;53.132;18.026;2023-02-01T16:32:02;10.50;;;2.80;;
76727;SDS011;65652;53.132;18.026;2023-02-01T16:34:32;8.60;;;2.90;;
76727;SDS011;65652;53.132;18.026;2023-02-01T16:37:01;8.50;;;3.30;;
76727;SDS011;65652;53.132;18.026;2023-02-01T16:39:29;9.60;;;2.40;;
76727;SDS011;65652;53.132;18.026;2023-02-01T16:41:59;11.60;;;2.70;;
76727;SDS011;65652;53.132;18.026;2023-02-01T16:44:28;10.50;;;3.30;;
76727;SDS011;65652;53.132;18.026;2023-02-01T16:46:54;14.60;;;4.20;;
76727;SDS011;65652;53.132;18.026;2023-02-01T16:49:22;13.30;;;3.70;;
76727;SDS011;65652;53.132;18.026;2023-02-01T16:51:49;9.70;;;2.40;;
76727;SDS011;65652;53.132;18.026;2023-02-01T16:54:20;11.90;;;4.70;;
76727;SDS011;65652;53.132;18.026;2023-02-01T16:56:47;16.00;;;5.10;;
76727;SDS011;65652;53.132;18.026;2023-02-01T16:59:14;12.10;;;3.50;;
76727;SDS011;65652;53.132;18.026;2023-02-01T17:01:41;10.60;;;3.00;;
76727;SDS011;65652;53.132;18.026;2023-02-01T17:04:09;9.50;;;2.80;;
76727;SDS011;65652;53.132;18.026;2023-02-01T17:06:35;10.70;;;3.00;;
76727;SDS011;65652;53.132;18.026;2023-02-01T17:09:03;12.00;;;3.10;;
76727;SDS011;65652;53.132;18.026;2023-02-01T17:11:30;14.60;;;4.70;;
76727;SDS011;65652;53.132;18.026;2023-02-01T17:13:57;11.90;;;3.40;;
76727;SDS011;65652;53.132;18.026;2023-02-01T17:16:35;11.10;;;3.30;;
76727;SDS011;65652;53.132;18.026;2023-02-01T17:19:03;11.00;;;2.90;;
76727;SDS011;65652;53.132;18.026;2023-02-01T17:21:39;11.00;;;3.40;;
76727;SDS011;65652;53.132;18.026;2023-02-01T17:24:14;7.80;;;2.60;;
76727;SDS011;65652;53.132;18.026;2023-02-01T17:26:42;9.40;;;2.70;;
76727;SDS011;65652;53.132;18.026;2023-02-01T17:29:09;8.60;;;2.20;;
76727;SDS011;65652;53.132;18.026;2023-02-01T17:31:37;7.10;;;1.60;;
76727;SDS011;65652;53.132;18.026;2023-02-01T17:34:06;7.60;;;1.90;;
76727;SDS011;65652;53.132;18.026;2023-02-01T17:36:32;8.40;;;2.00;;
76727;SDS011;65652;53.132;18.026;2023-02-01T17:39:01;5.60;;;1.50;;